Aegaeo — SXYY — position and weather

sailwx.info

Track history (hours):
 
Tides and Currents Weather Stations Pressure Air Temp Water Temp Dewpoint Dewpoint Depression Visibility Wind Speed Wind Dir Waves Ship Positions

Oceanographic research ship Aegaeo (Greece)

Detailed information on ship capabilities available from University of Delaware's Ocean Information Center.

Last reported at 2019-Jan-23 10:35 UTC. Time now 2019-Feb-23 17:30 UTC.
Position N 37°57' E 023°39'.
Warning: this ship's position is 31 days out of date.

Length 61.5 m; beam 9.6 m; draft 2.9 m.

Type: Ship (hazmat cat A). MMSI: 237529000.

Date/timePositionNaut miles runAvg speedWind from/ knotsBaromVisibWave heightAir tempDewpointWater temp
2019-Jan-23 10:35N 37°57' E 023°39'0 0.0
2019-Jan-23 10:31N 37°57' E 023°39'3 5.9
2019-Jan-23 10:00N 37°54' E 023°38'611.0
2019-Jan-23 09:30N 37°49' E 023°41'611.0
2019-Jan-23 09:00N 37°44' E 023°44'5 9.7
2019-Jan-23 08:30N 37°40' E 023°48'5 9.8
2019-Jan-23 08:00N 37°39' E 023°54'149 8.5
2019-Jan-22 14:25N 39°58' E 025°02'0 0.8
2019-Jan-22 13:49N 39°58' E 025°02'1 0.6
2019-Jan-22 12:06N 39°57' E 025°02'210.5
2019-Jan-22 11:52N 39°54' E 025°01'7 3.4
2019-Jan-22 09:51N 39°48' E 025°00'13810.4
2019-Jan-21 20:38N 37°38' E 023°59'210.9
2019-Jan-21 20:28N 37°38' E 023°57'511.2
2019-Jan-21 20:00N 37°41' E 023°51'511.1
2019-Jan-21 19:31N 37°45' E 023°46'611.2
2019-Jan-21 19:01N 37°49' E 023°42'510.8
2019-Jan-21 18:31N 37°54' E 023°38'3 5.2
2019-Jan-21 18:01N 37°56' E 023°37'  
2019-Jan-14 08:51N 37°56' E 023°37'0 0.0
2019-Jan-14 08:31N 37°56' E 023°37'  
Track history (hours):
 
Tides and Currents Weather Stations Pressure Air Temp Water Temp Dewpoint Dewpoint Depression Visibility Wind Speed Wind Dir Waves Ship Positions

Oceanographic research ship Aegaeo (Greece)

Detailed information on ship capabilities available from University of Delaware's Ocean Information Center.

Last reported at 2019-Jan-23 10:35 UTC. Time now 2019-Feb-23 17:30 UTC.
Position N 37°57' E 023°39'.
Warning: this ship's position is 31 days out of date.

Length 61.5 m; beam 9.6 m; draft 2.9 m.

Type: Ship (hazmat cat A). MMSI: 237529000.

Date/timePositionNaut miles runAvg speedWind from/ knotsBaromVisibWave heightAir tempDewpointWater temp
2019-Jan-23 10:35N 37°57' E 023°39'0 0.0
2019-Jan-23 10:31N 37°57' E 023°39'3 5.9
2019-Jan-23 10:00N 37°54' E 023°38'611.0
2019-Jan-23 09:30N 37°49' E 023°41'611.0
2019-Jan-23 09:00N 37°44' E 023°44'5 9.7
2019-Jan-23 08:30N 37°40' E 023°48'5 9.8
2019-Jan-23 08:00N 37°39' E 023°54'149 8.5
2019-Jan-22 14:25N 39°58' E 025°02'0 0.8
2019-Jan-22 13:49N 39°58' E 025°02'1 0.6
2019-Jan-22 12:06N 39°57' E 025°02'210.5
2019-Jan-22 11:52N 39°54' E 025°01'7 3.4
2019-Jan-22 09:51N 39°48' E 025°00'13810.4
2019-Jan-21 20:38N 37°38' E 023°59'210.9
2019-Jan-21 20:28N 37°38' E 023°57'511.2
2019-Jan-21 20:00N 37°41' E 023°51'511.1
2019-Jan-21 19:31N 37°45' E 023°46'611.2
2019-Jan-21 19:01N 37°49' E 023°42'510.8
2019-Jan-21 18:31N 37°54' E 023°38'3 5.2
2019-Jan-21 18:01N 37°56' E 023°37'  
2019-Jan-14 08:51N 37°56' E 023°37'0 0.0
2019-Jan-14 08:31N 37°56' E 023°37'  

Dump ship's entire track history